createdAt,value
2018-05-16T00:00:21.997Z,11.40
2018-05-16T00:02:48.965Z,12.33
2018-05-16T00:05:15.855Z,12.40
2018-05-16T00:07:42.729Z,10.60
2018-05-16T00:10:09.685Z,11.73
2018-05-16T00:12:36.615Z,11.53
2018-05-16T00:15:03.544Z,11.53
2018-05-16T00:17:30.452Z,10.83
2018-05-16T00:19:57.380Z,11.00
2018-05-16T00:22:24.316Z,11.77
2018-05-16T00:24:51.249Z,11.20
2018-05-16T00:27:18.178Z,11.30
2018-05-16T00:29:45.033Z,10.70
2018-05-16T00:32:12.008Z,8.97
2018-05-16T00:34:38.929Z,9.40
2018-05-16T00:37:05.877Z,10.57
2018-05-16T00:39:32.798Z,9.83
2018-05-16T00:42:00.569Z,9.70
2018-05-16T00:44:27.505Z,10.77
2018-05-16T00:46:54.472Z,9.30
2018-05-16T00:49:21.358Z,11.60
2018-05-16T00:51:48.233Z,10.73
2018-05-16T00:54:15.229Z,10.87
2018-05-16T00:56:42.111Z,9.17
2018-05-16T00:59:09.020Z,8.93
2018-05-16T01:01:35.887Z,10.27
2018-05-16T01:04:02.854Z,9.13
2018-05-16T01:06:29.737Z,9.17
2018-05-16T01:08:56.708Z,8.90
2018-05-16T01:11:23.589Z,10.50
2018-05-16T01:13:50.547Z,10.57
2018-05-16T01:16:17.489Z,9.93
2018-05-16T01:18:44.352Z,12.57
2018-05-16T01:21:11.370Z,11.33
2018-05-16T01:23:38.326Z,11.03
2018-05-16T01:26:05.185Z,12.17
2018-05-16T01:28:32.121Z,11.67
2018-05-16T01:31:00.506Z,11.63
2018-05-16T01:33:27.463Z,11.53
2018-05-16T01:35:54.414Z,11.20
2018-05-16T01:38:21.284Z,11.47
2018-05-16T01:40:48.993Z,12.50
2018-05-16T01:43:15.859Z,14.20
2018-05-16T01:45:42.736Z,12.10
2018-05-16T01:48:10.494Z,12.10
2018-05-16T01:50:37.353Z,12.30
2018-05-16T01:53:04.941Z,11.33
2018-05-16T01:55:31.852Z,12.17
2018-05-16T01:57:59.553Z,11.17
2018-05-16T02:00:26.408Z,11.17
2018-05-16T02:02:53.342Z,12.50
2018-05-16T02:05:20.198Z,11.17
2018-05-16T02:07:47.141Z,10.17
2018-05-16T02:10:14.134Z,11.07
2018-05-16T02:12:40.997Z,12.40
2018-05-16T02:15:08.677Z,12.00
2018-05-16T02:17:35.555Z,11.50
2018-05-16T02:20:02.530Z,12.13
2018-05-16T02:22:30.191Z,11.27
2018-05-16T02:24:57.132Z,13.43
2018-05-16T02:27:24.094Z,12.30
2018-05-16T02:29:50.944Z,14.67
2018-05-16T02:32:18.601Z,12.60
2018-05-16T02:34:45.526Z,12.20
2018-05-16T02:37:12.500Z,14.60
2018-05-16T02:39:40.191Z,15.03
2018-05-16T02:42:07.157Z,13.93
2018-05-16T02:44:34.087Z,13.93
2018-05-16T02:47:00.973Z,14.30
2018-05-16T02:49:27.967Z,14.07
2018-05-16T02:51:54.905Z,14.57
2018-05-16T02:54:21.902Z,14.70
2018-05-16T02:56:48.857Z,15.77
2018-05-16T02:59:15.804Z,15.03
2018-05-16T03:01:42.741Z,16.90
2018-05-16T03:04:09.619Z,15.87
2018-05-16T03:06:36.551Z,16.63
2018-05-16T03:09:03.598Z,19.90
2018-05-16T03:11:30.573Z,16.93
2018-05-16T03:13:57.451Z,19.07
2018-05-16T03:16:24.384Z,18.90
2018-05-16T03:18:51.290Z,19.13
2018-05-16T03:21:18.279Z,19.13
2018-05-16T03:23:45.140Z,18.90
2018-05-16T03:26:12.008Z,17.77
2018-05-16T03:28:38.984Z,18.23
2018-05-16T03:31:05.879Z,19.73
2018-05-16T03:33:32.844Z,19.37
2018-05-16T03:35:59.752Z,19.20
2018-05-16T03:38:26.636Z,20.17
2018-05-16T03:40:53.568Z,19.40
2018-05-16T03:43:21.270Z,18.00
2018-05-16T03:45:48.254Z,20.70
2018-05-16T03:48:15.196Z,19.53
2018-05-16T03:50:42.140Z,18.17
2018-05-16T03:53:09.038Z,19.00
2018-05-16T03:55:36.083Z,18.67
2018-05-16T03:58:23.629Z,17.63
2018-05-16T04:01:02.590Z,19.73
2018-05-16T04:03:41.709Z,18.83
2018-05-16T04:06:08.742Z,19.53
2018-05-16T04:08:35.659Z,20.37
2018-05-16T04:11:02.610Z,20.53
2018-05-16T04:13:29.611Z,22.67
2018-05-16T04:15:56.540Z,22.73
2018-05-16T04:18:24.335Z,20.93
2018-05-16T04:20:51.374Z,20.10
2018-05-16T04:23:18.280Z,20.13
2018-05-16T04:25:47.083Z,20.30
2018-05-16T04:28:28.671Z,20.57
2018-05-16T04:30:56.538Z,21.40
2018-05-16T04:33:23.549Z,21.40
2018-05-16T04:36:01.175Z,21.60
2018-05-16T04:38:30.657Z,25.40
2018-05-16T04:40:58.439Z,22.10
2018-05-16T04:43:28.341Z,19.60
2018-05-16T04:46:01.086Z,21.07
2018-05-16T04:48:28.054Z,17.70
2018-05-16T04:50:54.994Z,17.10
2018-05-16T04:53:22.848Z,14.73
2018-05-16T04:55:49.789Z,15.10
2018-05-16T04:58:16.756Z,12.60
2018-05-16T05:00:43.677Z,12.43
2018-05-16T05:03:10.537Z,10.40
2018-05-16T05:05:37.452Z,10.73
2018-05-16T05:08:04.330Z,9.90
2018-05-16T05:10:31.290Z,9.10
2018-05-16T05:12:58.178Z,9.17
2018-05-16T05:15:27.544Z,10.03
2018-05-16T05:17:54.888Z,10.77
2018-05-16T05:20:22.617Z,10.53
2018-05-16T05:22:49.623Z,14.17
2018-05-16T05:25:16.492Z,16.10
2018-05-16T05:27:44.156Z,13.57
2018-05-16T05:30:11.143Z,11.90
2018-05-16T05:32:38.041Z,13.30
2018-05-16T05:35:05.737Z,12.40
2018-05-16T05:37:32.612Z,12.00
2018-05-16T05:39:59.559Z,11.30
2018-05-16T05:42:26.437Z,12.50
2018-05-16T05:44:53.485Z,11.60
2018-05-16T05:47:20.354Z,11.97
2018-05-16T05:49:47.289Z,11.90
2018-05-16T05:52:14.275Z,12.20
2018-05-16T05:54:41.146Z,12.43
2018-05-16T05:57:08.101Z,15.77
2018-05-16T05:59:35.061Z,41.10
2018-05-16T06:02:02.016Z,15.00
2018-05-16T06:04:29.104Z,13.30
2018-05-16T06:06:55.976Z,15.03
2018-05-16T06:09:22.960Z,12.30
2018-05-16T06:11:49.884Z,12.30
2018-05-16T06:17:00.445Z,12.40
2018-05-16T06:19:27.395Z,13.00
2018-05-16T06:21:54.263Z,10.60
2018-05-16T06:24:21.201Z,13.27
2018-05-16T06:26:48.068Z,10.60
2018-05-16T06:29:15.011Z,11.50
2018-05-16T06:31:42.623Z,11.83
2018-05-16T06:34:09.486Z,13.13
2018-05-16T06:36:36.398Z,12.63
2018-05-16T06:39:03.426Z,11.43
2018-05-16T06:41:30.495Z,12.23
2018-05-16T06:43:57.417Z,12.07
2018-05-16T06:46:25.054Z,10.60
2018-05-16T06:48:51.909Z,11.20
2018-05-16T06:51:19.622Z,10.83
2018-05-16T06:53:46.468Z,10.60
2018-05-16T06:56:13.415Z,11.23
2018-05-16T06:58:40.364Z,11.13
2018-05-16T07:01:07.289Z,10.73
2018-05-16T07:03:34.197Z,10.10
2018-05-16T07:06:01.062Z,10.87
2018-05-16T07:08:27.964Z,10.00
2018-05-16T07:10:54.873Z,8.07
2018-05-16T07:13:21.774Z,9.07
2018-05-16T07:15:48.629Z,10.00
2018-05-16T07:18:16.476Z,9.60
2018-05-16T07:20:44.081Z,11.93
2018-05-16T07:23:10.926Z,12.10
2018-05-16T07:25:37.833Z,12.57
2018-05-16T07:28:04.681Z,12.87
2018-05-16T07:30:31.594Z,13.00
2018-05-16T07:32:58.507Z,10.83
2018-05-16T07:35:25.437Z,10.20
2018-05-16T07:37:53.017Z,9.90
2018-05-16T07:40:19.998Z,9.83
2018-05-16T07:42:46.922Z,11.03
2018-05-16T07:45:13.773Z,9.80
2018-05-16T07:47:40.672Z,9.97
2018-05-16T07:50:08.313Z,11.17
2018-05-16T07:52:35.217Z,11.30
2018-05-16T07:55:02.128Z,11.97
2018-05-16T07:57:29.787Z,12.33
2018-05-16T07:59:57.378Z,12.47
2018-05-16T08:02:24.252Z,11.03
2018-05-16T08:04:51.179Z,11.00
2018-05-16T08:07:18.097Z,10.20
2018-05-16T08:09:45.756Z,10.60
2018-05-16T08:12:12.749Z,10.23
2018-05-16T08:14:39.611Z,9.77
2018-05-16T08:17:06.537Z,11.10
2018-05-16T08:19:33.386Z,10.97
2018-05-16T08:22:00.353Z,8.97
2018-05-16T08:24:27.203Z,8.70
2018-05-16T08:26:54.124Z,8.57
2018-05-16T08:29:20.983Z,8.30
2018-05-16T08:31:47.898Z,8.77
2018-05-16T08:34:14.836Z,8.23
2018-05-16T08:36:41.744Z,8.30
2018-05-16T08:39:08.960Z,8.30
2018-05-16T08:41:35.903Z,7.60
2018-05-16T08:44:02.822Z,8.30
2018-05-16T08:46:29.729Z,7.40
2018-05-16T08:48:56.592Z,8.50
2018-05-16T08:51:23.577Z,7.80
2018-05-16T08:53:50.576Z,8.40
2018-05-16T08:56:18.184Z,9.40
2018-05-16T08:58:45.041Z,9.83
2018-05-16T09:01:12.046Z,8.90
2018-05-16T09:03:39.629Z,8.70
2018-05-16T09:06:06.540Z,9.83
2018-05-16T09:08:34.136Z,9.30
2018-05-16T09:11:01.057Z,9.70
2018-05-16T09:13:27.911Z,9.20
2018-05-16T09:15:54.846Z,8.13
2018-05-16T09:18:21.786Z,7.60
2018-05-16T09:20:49.476Z,8.90
2018-05-16T09:23:16.326Z,7.80
2018-05-16T09:25:43.184Z,8.10
2018-05-16T09:28:10.094Z,8.60
2018-05-16T09:30:36.953Z,9.27
2018-05-16T09:33:03.881Z,8.90
2018-05-16T09:35:30.872Z,8.93
2018-05-16T09:37:57.790Z,8.20
2018-05-16T09:40:24.752Z,9.27
2018-05-16T09:42:51.632Z,8.10
2018-05-16T09:45:18.549Z,8.67
2018-05-16T09:47:45.393Z,8.20
2018-05-16T09:50:12.310Z,8.87
2018-05-16T09:52:39.164Z,8.13
2018-05-16T09:55:06.105Z,9.00
2018-05-16T09:57:32.949Z,12.90
2018-05-16T09:59:59.844Z,7.20
2018-05-16T10:02:26.773Z,8.40
2018-05-16T10:04:53.638Z,8.30
2018-05-16T10:07:20.560Z,8.07
2018-05-16T10:09:47.417Z,8.40
2018-05-16T10:12:14.337Z,8.30
2018-05-16T10:14:41.180Z,6.97
2018-05-16T10:17:08.167Z,9.10
2018-05-16T10:19:35.809Z,9.07
2018-05-16T10:22:02.761Z,8.30
2018-05-16T10:24:29.622Z,9.37
2018-05-16T10:26:57.244Z,10.27
2018-05-16T10:29:24.186Z,8.90
2018-05-16T10:31:51.053Z,9.43
2018-05-16T10:34:17.978Z,8.30
2018-05-16T10:36:45.016Z,7.63
2018-05-16T10:39:11.989Z,8.07
2018-05-16T10:41:43.231Z,7.63
2018-05-16T10:44:10.892Z,7.70
2018-05-16T10:46:37.758Z,7.30
2018-05-16T10:49:04.869Z,7.47
2018-05-16T10:51:31.827Z,7.97
2018-05-16T10:53:59.068Z,7.53
2018-05-16T10:56:27.158Z,7.50
2018-05-16T10:58:55.062Z,7.50
2018-05-16T11:01:21.931Z,7.70
2018-05-16T11:03:51.447Z,9.13
2018-05-16T11:06:18.722Z,9.73
2018-05-16T11:08:48.250Z,9.40
2018-05-16T11:11:16.020Z,8.50
2018-05-16T11:13:42.897Z,8.67
2018-05-16T11:16:10.582Z,7.70
2018-05-16T11:18:37.541Z,7.67
2018-05-16T11:21:04.420Z,9.03
2018-05-16T11:23:31.385Z,9.47
2018-05-16T11:25:58.258Z,8.20
2018-05-16T11:28:25.310Z,8.27
2018-05-16T11:30:52.281Z,8.60
2018-05-16T11:33:19.243Z,7.80
2018-05-16T11:35:46.107Z,7.60
2018-05-16T11:38:13.048Z,7.30
2018-05-16T11:40:39.988Z,9.03
2018-05-16T11:43:06.879Z,9.87
2018-05-16T11:45:34.152Z,8.63
2018-05-16T11:48:01.100Z,9.43
2018-05-16T11:50:27.977Z,8.60
2018-05-16T11:52:54.889Z,7.23
2018-05-16T11:55:21.881Z,7.67
2018-05-16T11:57:49.013Z,8.33
2018-05-16T12:00:15.888Z,8.60
2018-05-16T12:02:42.900Z,10.23
2018-05-16T12:05:10.504Z,11.23
2018-05-16T12:07:37.352Z,10.40
2018-05-16T12:10:05.088Z,9.27
2018-05-16T12:12:31.996Z,9.00
2018-05-16T12:14:58.939Z,8.90
2018-05-16T12:17:26.882Z,8.60
2018-05-16T12:19:53.765Z,7.50
2018-05-16T12:22:26.417Z,7.70
2018-05-16T12:24:54.986Z,7.57
2018-05-16T12:27:22.968Z,7.13
2018-05-16T12:29:50.230Z,9.20
2018-05-16T12:32:18.579Z,9.23
2018-05-16T12:34:46.600Z,8.20
2018-05-16T12:37:13.701Z,7.60
2018-05-16T12:39:41.317Z,7.63
2018-05-16T12:42:08.308Z,7.40
2018-05-16T12:44:35.373Z,7.53
2018-05-16T12:47:03.420Z,7.60
2018-05-16T12:49:31.888Z,7.37
2018-05-16T12:52:00.066Z,7.30
2018-05-16T12:54:27.010Z,8.13
2018-05-16T12:56:57.424Z,7.87
2018-05-16T12:59:31.017Z,6.87
2018-05-16T13:01:57.885Z,7.13
2018-05-16T13:04:24.818Z,6.40
2018-05-16T13:06:54.446Z,5.87
2018-05-16T13:09:24.732Z,6.10
2018-05-16T13:11:53.068Z,6.53
2018-05-16T13:17:05.065Z,7.00
2018-05-16T13:19:38.260Z,6.47
2018-05-16T13:22:07.534Z,8.07
2018-05-16T13:24:43.348Z,7.70
2018-05-16T13:27:16.800Z,7.57
2018-05-16T13:29:57.541Z,7.37
2018-05-16T13:32:32.907Z,7.40
2018-05-16T13:35:15.017Z,7.80
2018-05-16T13:37:42.848Z,6.97
2018-05-16T13:40:09.855Z,6.73
2018-05-16T13:42:37.413Z,6.30
2018-05-16T13:45:05.397Z,6.57
2018-05-16T13:47:33.716Z,8.47
2018-05-16T13:50:00.730Z,8.20
2018-05-16T13:52:28.406Z,6.87
2018-05-16T13:54:55.911Z,6.87
2018-05-16T13:57:22.854Z,6.10
2018-05-16T13:59:51.636Z,6.83
2018-05-16T14:02:18.921Z,7.00
2018-05-16T14:04:46.112Z,6.80
2018-05-16T14:07:12.996Z,6.90
2018-05-16T14:09:39.985Z,6.40
2018-05-16T14:12:11.324Z,6.67
2018-05-16T14:14:40.127Z,7.50
2018-05-16T14:17:07.157Z,7.47
2018-05-16T14:19:34.921Z,6.97
2018-05-16T14:22:01.796Z,6.03
2018-05-16T14:24:28.731Z,7.03
2018-05-16T14:26:55.592Z,7.33
2018-05-16T14:29:22.568Z,8.73
2018-05-16T14:31:49.578Z,8.43
2018-05-16T14:34:16.526Z,8.40
2018-05-16T14:36:43.433Z,8.17
2018-05-16T14:39:10.435Z,7.90
2018-05-16T14:41:37.318Z,7.93
2018-05-16T14:44:04.279Z,9.17
2018-05-16T14:46:31.129Z,9.57
2018-05-16T14:48:58.040Z,9.80
2018-05-16T14:51:25.043Z,10.57
2018-05-16T14:53:52.024Z,10.73
2018-05-16T14:56:18.921Z,11.00
2018-05-16T14:58:46.574Z,10.70
2018-05-16T15:01:13.499Z,11.50
2018-05-16T15:03:40.434Z,11.27
2018-05-16T15:06:07.297Z,11.27
2018-05-16T15:08:34.242Z,10.27
2018-05-16T15:11:01.122Z,9.60
2018-05-16T15:13:27.997Z,10.63
2018-05-16T15:15:54.934Z,10.80
2018-05-16T15:18:21.872Z,11.80
2018-05-16T15:20:48.800Z,9.43
2018-05-16T15:23:16.393Z,8.30
2018-05-16T15:25:43.343Z,9.00
2018-05-16T15:28:10.207Z,9.30
2018-05-16T15:30:37.093Z,9.17
2018-05-16T15:33:04.826Z,8.73
2018-05-16T15:35:31.678Z,8.83
2018-05-16T15:37:58.601Z,7.57
2018-05-16T15:40:25.469Z,7.73
2018-05-16T15:42:52.382Z,9.40
2018-05-16T15:45:19.240Z,8.27
2018-05-16T15:47:46.171Z,8.43
2018-05-16T15:50:13.069Z,8.10
2018-05-16T15:52:40.740Z,9.00
2018-05-16T15:55:08.499Z,8.33
2018-05-16T15:57:36.156Z,8.60
2018-05-16T16:00:03.135Z,8.80
2018-05-16T16:02:30.045Z,8.10
2018-05-16T16:04:56.958Z,8.27
2018-05-16T16:07:23.817Z,8.50
2018-05-16T16:09:50.752Z,8.20
2018-05-16T16:12:17.669Z,8.07
2018-05-16T16:14:44.605Z,9.20
2018-05-16T16:17:11.560Z,8.70
2018-05-16T16:19:38.527Z,8.87
2018-05-16T16:22:05.464Z,9.87
2018-05-16T16:24:32.377Z,8.67
2018-05-16T16:27:00.045Z,9.33
2018-05-16T16:29:26.916Z,9.90
2018-05-16T16:31:53.839Z,10.17
2018-05-16T16:34:20.785Z,10.60
2018-05-16T16:36:49.249Z,12.17
2018-05-16T16:39:16.404Z,9.90
2018-05-16T16:41:44.102Z,10.63
2018-05-16T16:44:10.981Z,9.20
2018-05-16T16:46:39.999Z,10.10
2018-05-16T16:49:08.270Z,12.00
2018-05-16T16:51:37.006Z,12.03
2018-05-16T16:54:06.876Z,11.00
2018-05-16T16:56:37.707Z,11.07
2018-05-16T16:59:04.812Z,11.03
2018-05-16T17:01:31.694Z,11.97
2018-05-16T17:03:58.706Z,10.60
2018-05-16T17:06:25.580Z,10.13
2018-05-16T17:08:52.433Z,10.63
2018-05-16T17:11:19.368Z,10.17
2018-05-16T17:13:46.284Z,10.40
2018-05-16T17:16:13.212Z,9.97
2018-05-16T17:18:40.089Z,9.10
2018-05-16T17:21:07.015Z,9.77
2018-05-16T17:23:33.944Z,9.30
2018-05-16T17:26:00.805Z,8.90
2018-05-16T17:28:27.720Z,8.83
2018-05-16T17:30:55.388Z,10.20
2018-05-16T17:33:23.106Z,9.90
2018-05-16T17:35:50.025Z,9.00
2018-05-16T17:38:16.913Z,9.30
2018-05-16T17:40:43.856Z,10.37
2018-05-16T17:43:10.997Z,9.30
2018-05-16T17:45:50.217Z,9.33
2018-05-16T17:48:18.348Z,10.83
2018-05-16T17:50:49.889Z,11.30
2018-05-16T17:53:17.099Z,10.17
2018-05-16T17:55:44.039Z,10.93
2018-05-16T17:58:12.136Z,10.97
2018-05-16T18:00:39.085Z,11.63
2018-05-16T18:03:06.017Z,11.03
2018-05-16T18:05:32.892Z,10.87
2018-05-16T18:07:59.810Z,9.93
2018-05-16T18:10:26.749Z,9.33
2018-05-16T18:13:17.522Z,10.17
2018-05-16T18:15:58.069Z,13.23
2018-05-16T18:18:25.781Z,11.23
2018-05-16T18:20:57.956Z,11.50
2018-05-16T18:23:24.814Z,10.67
2018-05-16T18:25:51.691Z,9.30
2018-05-16T18:28:19.353Z,9.23
2018-05-16T18:30:46.946Z,10.17
2018-05-16T18:33:13.869Z,10.60
2018-05-16T18:35:41.486Z,9.50
2018-05-16T18:38:08.425Z,10.90
2018-05-16T18:40:35.277Z,12.53
2018-05-16T18:43:02.140Z,11.57
2018-05-16T18:45:29.063Z,11.00
2018-05-16T18:47:56.030Z,9.50
2018-05-16T18:50:22.964Z,10.60
2018-05-16T18:52:49.852Z,9.20
2018-05-16T18:55:16.793Z,10.60
2018-05-16T18:57:44.470Z,10.23
2018-05-16T19:00:11.408Z,10.13
2018-05-16T19:02:38.345Z,10.40
2018-05-16T19:05:06.006Z,8.93
2018-05-16T19:07:33.672Z,10.20
2018-05-16T19:10:01.301Z,10.23
2018-05-16T19:12:28.175Z,10.50
2018-05-16T19:14:55.133Z,10.40
2018-05-16T19:17:22.041Z,10.30
2018-05-16T19:19:48.999Z,9.70
2018-05-16T19:22:15.960Z,10.10
2018-05-16T19:24:43.681Z,10.10
2018-05-16T19:27:10.673Z,10.87
2018-05-16T19:29:38.283Z,10.93
2018-05-16T19:32:05.226Z,10.80
2018-05-16T19:34:32.231Z,10.17
2018-05-16T19:36:59.869Z,9.33
2018-05-16T19:39:26.813Z,10.40
2018-05-16T19:41:53.827Z,10.13
2018-05-16T19:44:20.723Z,10.70
2018-05-16T19:46:48.471Z,10.43
2018-05-16T19:49:15.414Z,10.10
2018-05-16T19:51:42.465Z,10.20
2018-05-16T19:54:09.391Z,9.97
2018-05-16T19:56:36.393Z,10.77
2018-05-16T19:59:03.258Z,10.20
2018-05-16T20:01:30.231Z,12.00
2018-05-16T20:03:57.096Z,11.20
2018-05-16T20:06:24.126Z,11.83
2018-05-16T20:08:50.997Z,10.27
2018-05-16T20:11:17.937Z,10.47
2018-05-16T20:13:44.902Z,10.90
2018-05-16T20:16:11.769Z,10.57
2018-05-16T20:18:38.735Z,10.83
2018-05-16T20:21:05.670Z,10.60
2018-05-16T20:23:32.556Z,11.50
2018-05-16T20:25:59.397Z,9.90
2018-05-16T20:28:26.329Z,10.57
2018-05-16T20:30:53.276Z,10.47
2018-05-16T20:33:20.225Z,11.53
2018-05-16T20:35:47.140Z,10.83
2018-05-16T20:38:14.119Z,11.50
2018-05-16T20:40:40.984Z,10.90
2018-05-16T20:43:07.966Z,10.20
2018-05-16T20:45:35.391Z,10.50
2018-05-16T20:48:02.369Z,10.57
2018-05-16T20:50:29.295Z,11.10
2018-05-16T20:52:56.915Z,11.70
2018-05-16T20:55:23.880Z,11.03
2018-05-16T20:57:50.817Z,11.00
2018-05-16T21:00:17.685Z,11.27
2018-05-16T21:02:45.362Z,11.03
2018-05-16T21:05:12.305Z,10.37
2018-05-16T21:07:39.979Z,11.20
2018-05-16T21:10:06.929Z,11.13
2018-05-16T21:12:33.794Z,10.90
2018-05-16T21:15:00.732Z,10.80
2018-05-16T21:17:27.691Z,10.83
2018-05-16T21:19:54.576Z,12.10
2018-05-16T21:22:21.525Z,10.07
2018-05-16T21:24:48.420Z,10.43
2018-05-16T21:27:15.285Z,10.37
2018-05-16T21:29:42.289Z,11.67
2018-05-16T21:32:09.150Z,12.00
2018-05-16T21:34:36.119Z,11.20
2018-05-16T21:37:03.136Z,11.50
2018-05-16T21:39:30.032Z,12.83
2018-05-16T21:41:57.006Z,12.03
2018-05-16T21:44:23.856Z,12.07
2018-05-16T21:46:51.481Z,12.77
2018-05-16T21:49:18.438Z,13.40
2018-05-16T21:51:46.090Z,13.40
2018-05-16T21:54:13.022Z,14.27
2018-05-16T21:56:40.008Z,14.47
2018-05-16T21:59:06.948Z,13.77
2018-05-16T22:01:33.796Z,13.83
2018-05-16T22:04:00.751Z,15.60
2018-05-16T22:06:28.426Z,17.23
2018-05-16T22:08:55.366Z,14.80
2018-05-16T22:11:22.337Z,14.43
2018-05-16T22:13:49.194Z,14.37
2018-05-16T22:16:16.176Z,16.13
2018-05-16T22:18:44.839Z,15.33
2018-05-16T22:21:12.853Z,18.33
2018-05-16T22:23:39.847Z,17.77
2018-05-16T22:26:06.759Z,17.20
2018-05-16T22:28:35.230Z,15.70
2018-05-16T22:31:08.170Z,17.83
2018-05-16T22:33:41.136Z,19.27
2018-05-16T22:36:14.171Z,17.87
2018-05-16T22:38:47.035Z,19.43
2018-05-16T22:41:29.773Z,18.80
2018-05-16T22:44:09.970Z,19.07
2018-05-16T22:46:37.637Z,17.80
2018-05-16T22:49:07.848Z,19.63
2018-05-16T22:51:46.492Z,18.87
2018-05-16T22:54:14.061Z,19.53
2018-05-16T22:56:49.541Z,22.93
2018-05-16T22:59:28.380Z,22.60
2018-05-16T23:02:08.144Z,19.23
2018-05-16T23:04:47.710Z,17.33
2018-05-16T23:07:16.384Z,20.07
2018-05-16T23:09:56.411Z,19.47
2018-05-16T23:12:25.069Z,25.20
2018-05-16T23:14:52.083Z,27.83
2018-05-16T23:17:20.071Z,23.50
2018-05-16T23:19:47.113Z,23.83
2018-05-16T23:22:13.991Z,24.53
2018-05-16T23:24:41.751Z,24.53
2018-05-16T23:27:09.386Z,24.17
2018-05-16T23:29:36.268Z,23.07
2018-05-16T23:32:03.246Z,25.13
2018-05-16T23:34:30.324Z,19.87
2018-05-16T23:36:57.236Z,18.93
2018-05-16T23:39:24.281Z,20.40
2018-05-16T23:41:52.221Z,20.63
2018-05-16T23:44:19.427Z,22.53
2018-05-16T23:46:46.339Z,22.97
2018-05-16T23:49:13.291Z,19.47
2018-05-16T23:51:40.160Z,19.37
2018-05-16T23:54:07.172Z,19.43
2018-05-16T23:56:34.291Z,20.57
2018-05-16T23:59:01.275Z,15.00
